GUCY/CKY METAR and TAF weather

Enter ICAO airport designator
Station Type Date Time Source
GUCY METAR 2021/05/13 00:00 UTC NOAA

GUCY 130000Z 05006KT 9999 BKN015 SCT110 27/23 Q1010 NOSIG


Station Type Date Time Source
GUCY Decoded METAR 2021/05/13 00:00 UTC NOAA

Conakry / Gbessia, Guinea (GUCY) 09-34N 013-37W 26M
May 12, 2021 - 08:00 PM EDT / 2021.05.13 0000 UTC
Wind: from the NE (050 degrees) at 7 MPH (6 KT):0
Visibility: greater than 7 mile(s):0
Sky conditions: mostly cloudy
Temperature: 80 F (27 C)
Dew Point: 73 F (23 C)
Relative Humidity: 78%
Pressure (altimeter): 29.83 in. Hg (1010 hPa)
ob: GUCY 130000Z 05006KT 9999 BKN015 SCT110 27/23 Q1010 NOSIG
cycle: 0

Station Type Date Time Source
GUCY TAF 2021/05/12 18:05 UTC NOAA

TAF GUCY 121700Z 1218/1324 29008KT 9999 FEW015 SCT120 PROB30
TEMPO 1221/1301 17012KT 4000 TSRA BKN013 FEW023CB OVC100

Example: see airport list